SNDW weather

Divisa Airport
Encruzilhada, Bahia, Brazil

Public forecast

Using degrees Celsius for public forecast. Weather courtesy of forecast.io.

Closest aviation weather report (METAR) to Divisa Airport

Report is more than 6 hours old.

Closest report is Vitória da Conquista Airport, 52.1 nm (96.4 km) N. Retrieved 2019/07/24 23:00 UTC (10 months ago):

SBQV 242300Z 15009KT 9999 SCT006 17/16 Q1023

Closest aviation forecast (TAF) to Divisa Airport

Forecast is more than 12 hours old.

Closest forecast is Vitória da Conquista Airport, 52.1 nm (96.4 km) N. Retrieved 2011/10/19 00:40 UTC (9 years ago):

TAF SBQV 192200Z 2000/2012 14012KT 7000 BKN010 TN15/2000Z TX17/2011Z PROB40 2004/2010 3000 RA br BKN006 SCT 015 RMK PCH